createdAt,value
2022-08-18T09:09:57.925Z,100.00
2022-08-18T09:12:26.863Z,100.00
2022-08-18T09:15:22.704Z,100.00
2022-08-18T09:18:02.237Z,100.00
2022-08-18T09:20:49.174Z,100.00
2022-08-18T09:23:25.631Z,100.00
2022-08-18T09:26:00.372Z,100.00
2022-08-18T09:28:30.625Z,100.00
2022-08-18T09:31:05.574Z,100.00
2022-08-18T09:33:40.525Z,100.00
2022-08-18T09:36:36.146Z,100.00
2022-08-18T09:42:50.555Z,100.00
2022-08-18T09:45:33.731Z,100.00
2022-08-18T09:48:32.526Z,100.00
2022-08-18T09:51:23.820Z,100.00
2022-08-18T09:53:53.669Z,100.00
2022-08-18T09:56:54.309Z,100.00
2022-08-18T09:59:35.097Z,100.00
2022-08-18T10:05:19.895Z,100.00
2022-08-18T10:08:21.208Z,100.00
2022-08-18T10:11:08.606Z,100.00
2022-08-18T10:14:19.002Z,100.00
2022-08-18T10:17:24.745Z,100.00
2022-08-18T10:20:00.950Z,100.00
2022-08-18T10:22:43.942Z,100.00
2022-08-18T10:25:22.659Z,100.00
2022-08-18T10:27:56.849Z,100.00
2022-08-18T10:30:57.462Z,100.00
2022-08-18T10:33:56.791Z,100.00
2022-08-18T10:39:41.246Z,100.00
2022-08-18T10:42:35.502Z,100.00
2022-08-18T10:45:22.083Z,100.00
2022-08-18T10:48:24.192Z,100.00
2022-08-18T10:51:13.283Z,100.00
2022-08-18T10:54:00.540Z,100.00
2022-08-18T10:56:48.039Z,100.00
2022-08-18T10:59:50.718Z,100.00
2022-08-18T11:02:38.606Z,100.00
2022-08-18T11:05:08.141Z,100.00
2022-08-18T11:07:42.726Z,100.00
2022-08-18T11:10:58.190Z,100.00
2022-08-18T11:13:10.102Z,100.00
2022-08-18T11:15:47.384Z,100.00
2022-08-18T11:18:44.998Z,100.00
2022-08-18T11:21:42.305Z,100.00
2022-08-18T11:24:25.893Z,100.00
2022-08-18T11:26:57.092Z,100.00
2022-08-18T11:29:33.679Z,100.00
2022-08-18T11:32:17.986Z,100.00
2022-08-18T11:35:16.326Z,100.00
2022-08-18T11:37:53.549Z,100.00
2022-08-18T11:43:41.355Z,100.00
2022-08-18T11:46:29.711Z,100.00
2022-08-18T11:49:00.936Z,100.00
2022-08-18T11:51:32.912Z,100.00
2022-08-18T11:54:02.320Z,100.00
2022-08-18T11:56:35.877Z,100.00
2022-08-18T11:59:35.054Z,100.00
2022-08-18T12:02:21.185Z,100.00
2022-08-18T12:05:03.440Z,100.00
2022-08-18T12:07:36.903Z,100.00
2022-08-18T12:10:28.705Z,100.00
2022-08-18T12:13:01.260Z,100.00
2022-08-18T12:15:46.937Z,100.00
2022-08-18T12:18:26.474Z,100.00
2022-08-18T12:23:52.166Z,100.00
2022-08-18T12:26:37.968Z,100.00
2022-08-18T12:31:56.838Z,100.00
2022-08-18T12:34:27.343Z,100.00
2022-08-18T12:36:58.275Z,100.00
2022-08-18T12:39:25.847Z,100.00
2022-08-18T12:41:55.870Z,100.00
2022-08-18T12:44:27.438Z,100.00
2022-08-18T12:46:57.331Z,100.00
2022-08-18T12:49:27.288Z,100.00
2022-08-18T12:51:57.254Z,100.00
2022-08-18T12:54:27.128Z,100.00
2022-08-18T12:56:57.564Z,100.00
2022-08-18T12:59:27.579Z,100.00
2022-08-18T13:02:01.754Z,100.00
2022-08-18T13:04:29.676Z,100.00
2022-08-18T13:07:04.809Z,100.00
2022-08-18T13:09:53.366Z,100.00
2022-08-18T13:12:28.005Z,100.00
2022-08-18T13:14:57.223Z,100.00
2022-08-18T13:17:32.069Z,100.00
2022-08-18T13:20:09.303Z,100.00
2022-08-18T13:22:40.754Z,100.00
2022-08-18T13:25:10.667Z,100.00
2022-08-18T13:27:38.783Z,100.00
2022-08-18T13:30:30.770Z,100.00
2022-08-18T13:33:34.093Z,100.00
2022-08-18T13:35:54.429Z,100.00
2022-08-18T13:38:27.812Z,100.00
2022-08-18T13:40:58.674Z,100.00
2022-08-18T13:43:34.279Z,100.00
2022-08-18T13:46:03.960Z,100.00
2022-08-18T13:48:31.946Z,100.00
2022-08-18T13:51:01.933Z,100.00
2022-08-18T13:53:31.866Z,100.00
2022-08-18T13:55:59.744Z,100.00
2022-08-18T13:58:29.629Z,100.00
2022-08-18T14:01:39.772Z,100.00
2022-08-18T14:03:50.350Z,100.00
2022-08-18T14:06:22.136Z,100.00
2022-08-18T14:08:53.986Z,100.00
2022-08-18T14:11:27.429Z,100.00
2022-08-18T14:13:55.927Z,100.00
2022-08-18T14:16:26.855Z,100.00
2022-08-18T14:19:13.055Z,100.00
2022-08-18T14:22:03.529Z,100.00
2022-08-18T14:24:51.023Z,100.00
2022-08-18T14:27:24.068Z,100.00
2022-08-18T14:29:55.122Z,100.00
2022-08-18T14:32:29.060Z,100.00
2022-08-18T14:35:31.964Z,100.00
2022-08-18T14:37:48.316Z,100.00
2022-08-18T14:40:16.718Z,100.00
2022-08-18T14:42:54.119Z,100.00
2022-08-18T14:45:35.467Z,100.00
2022-08-18T14:48:06.451Z,100.00
2022-08-18T14:50:35.832Z,100.00
2022-08-18T14:53:04.956Z,100.00
2022-08-18T14:55:32.261Z,100.00
2022-08-18T14:57:59.904Z,100.00
2022-08-18T15:00:28.393Z,100.00
2022-08-18T15:03:00.193Z,100.00
2022-08-18T15:05:33.947Z,100.00
2022-08-18T15:08:06.047Z,100.00
2022-08-18T15:10:33.279Z,100.00
2022-08-18T15:13:03.678Z,100.00
2022-08-18T15:15:42.399Z,100.00
2022-08-18T15:18:22.832Z,100.00
2022-08-18T15:21:10.433Z,100.00
2022-08-18T15:24:20.298Z,100.00
2022-08-18T15:26:51.518Z,100.00
2022-08-18T15:29:22.559Z,100.00
2022-08-18T15:31:59.708Z,100.00
2022-08-18T15:34:31.195Z,100.00
2022-08-18T15:37:09.674Z,100.00
2022-08-18T15:39:37.196Z,100.00
2022-08-18T15:42:10.708Z,100.00
2022-08-18T15:44:38.245Z,100.00
2022-08-18T15:47:05.865Z,100.00
2022-08-18T15:49:36.436Z,100.00
2022-08-18T15:52:03.655Z,100.00
2022-08-18T15:54:31.283Z,100.00
2022-08-18T15:56:58.803Z,100.00
2022-08-18T15:59:34.258Z,100.00
2022-08-18T16:02:11.475Z,100.00
2022-08-18T16:04:41.523Z,100.00
2022-08-18T16:07:10.984Z,100.00
2022-08-18T16:09:38.486Z,100.00
2022-08-18T16:12:08.501Z,100.00
2022-08-18T16:14:40.318Z,100.00
2022-08-18T16:17:09.442Z,100.00
2022-08-18T16:19:46.410Z,100.00
2022-08-18T16:22:13.494Z,100.00
2022-08-18T16:24:40.740Z,100.00
2022-08-18T16:27:08.677Z,100.00
2022-08-18T16:29:36.456Z,100.00
2022-08-18T16:32:04.293Z,100.00
2022-08-18T16:34:43.977Z,100.00
2022-08-18T16:37:11.085Z,100.00
2022-08-18T16:39:38.277Z,92.51
2022-08-18T16:42:06.816Z,93.14
2022-08-18T16:44:33.898Z,83.81
2022-08-18T16:47:01.698Z,83.08
2022-08-18T16:49:31.399Z,85.86
2022-08-18T16:52:04.446Z,84.92
2022-08-18T16:54:32.522Z,81.78
2022-08-18T16:57:00.681Z,82.94
2022-08-18T16:59:46.247Z,81.65
2022-08-18T17:02:32.311Z,82.82
2022-08-18T17:05:02.394Z,77.57
2022-08-18T17:07:34.600Z,83.05
2022-08-18T17:10:02.098Z,90.64
2022-08-18T17:12:30.511Z,93.69
2022-08-18T17:14:57.698Z,89.20
2022-08-18T17:17:25.881Z,90.08
2022-08-18T17:19:54.038Z,93.46
2022-08-18T17:22:22.009Z,100.00
2022-08-18T17:24:50.762Z,100.00
2022-08-18T17:27:26.722Z,100.00
2022-08-18T17:30:37.188Z,100.00
2022-08-18T17:33:15.008Z,100.00
2022-08-18T17:35:46.743Z,100.00
2022-08-18T17:38:49.602Z,100.00
2022-08-18T17:41:29.594Z,100.00
2022-08-18T17:44:01.942Z,100.00
2022-08-18T17:46:38.255Z,100.00
2022-08-18T17:49:18.185Z,100.00
2022-08-18T17:51:46.955Z,100.00
2022-08-18T17:54:40.810Z,100.00
2022-08-18T17:57:12.693Z,100.00
2022-08-18T18:00:02.152Z,100.00
2022-08-18T18:02:33.042Z,100.00
2022-08-18T18:05:08.432Z,100.00
2022-08-18T18:07:52.920Z,100.00
2022-08-18T18:13:33.554Z,100.00
2022-08-18T18:16:20.428Z,100.00
2022-08-18T18:19:01.135Z,100.00
2022-08-18T18:21:53.510Z,100.00
2022-08-18T18:24:30.781Z,100.00
2022-08-18T18:26:58.311Z,100.00
2022-08-18T18:29:37.118Z,100.00
2022-08-18T18:32:24.275Z,100.00
2022-08-18T18:35:21.526Z,100.00
2022-08-18T18:37:57.051Z,100.00
2022-08-18T18:40:41.454Z,100.00
2022-08-18T18:43:20.277Z,100.00
2022-08-18T18:46:09.009Z,100.00
2022-08-18T18:48:57.532Z,100.00
2022-08-18T18:51:50.649Z,100.00
2022-08-18T18:54:44.021Z,100.00
2022-08-18T18:57:31.805Z,100.00
2022-08-18T19:00:18.165Z,100.00
2022-08-18T19:03:05.921Z,100.00
2022-08-18T19:05:57.467Z,100.00
2022-08-18T19:08:45.151Z,100.00
2022-08-18T19:11:26.848Z,100.00
2022-08-18T19:14:02.150Z,100.00
2022-08-18T19:16:51.272Z,100.00
2022-08-18T19:19:37.181Z,100.00
2022-08-18T19:22:21.467Z,100.00
2022-08-18T19:25:03.541Z,100.00
2022-08-18T19:27:48.095Z,100.00
2022-08-18T19:30:18.318Z,100.00
2022-08-18T19:32:53.274Z,100.00
2022-08-18T19:35:50.175Z,100.00
2022-08-18T19:38:35.020Z,100.00
2022-08-18T19:41:32.429Z,100.00
2022-08-18T19:44:29.817Z,100.00
2022-08-18T19:47:28.015Z,100.00
2022-08-18T19:50:02.313Z,100.00
2022-08-18T19:52:55.831Z,100.00
2022-08-18T19:56:05.595Z,100.00
2022-08-18T19:59:19.505Z,100.00
2022-08-18T20:02:12.979Z,100.00
2022-08-18T20:04:51.527Z,100.00
2022-08-18T20:07:54.789Z,100.00
2022-08-18T20:10:54.671Z,100.00
2022-08-18T20:13:33.780Z,100.00
2022-08-18T20:16:10.574Z,100.00
2022-08-18T20:18:42.601Z,100.00
2022-08-18T20:21:15.770Z,100.00
2022-08-18T20:24:08.519Z,100.00
2022-08-18T20:26:38.554Z,100.00
2022-08-18T20:29:15.288Z,100.00
2022-08-18T20:32:05.047Z,100.00
2022-08-18T20:34:35.076Z,100.00
2022-08-18T20:37:08.252Z,100.00
2022-08-18T20:39:58.049Z,100.00
2022-08-18T20:42:27.713Z,100.00
2022-08-18T20:45:01.324Z,100.00
2022-08-18T20:47:41.943Z,100.00
2022-08-18T20:50:41.225Z,100.00
2022-08-18T20:53:30.302Z,100.00
2022-08-18T20:56:43.294Z,100.00
2022-08-18T20:59:20.178Z,100.00
2022-08-18T21:02:01.619Z,100.00
2022-08-18T21:04:57.121Z,100.00
2022-08-18T21:07:37.759Z,100.00
2022-08-18T21:10:17.870Z,100.00
2022-08-18T21:12:53.503Z,100.00
2022-08-18T21:15:32.992Z,100.00
2022-08-18T21:18:20.826Z,100.00
2022-08-18T21:20:50.865Z,100.00
2022-08-18T21:23:33.725Z,100.00
2022-08-18T21:26:13.527Z,100.00
2022-08-18T21:28:45.364Z,100.00
2022-08-18T21:31:44.132Z,100.00
2022-08-18T21:34:29.900Z,100.00
2022-08-18T21:37:01.050Z,100.00
2022-08-18T21:39:28.360Z,100.00
2022-08-18T21:41:58.209Z,100.00
2022-08-18T21:44:27.920Z,100.00
2022-08-18T21:47:09.448Z,100.00
2022-08-18T21:49:37.725Z,100.00
2022-08-18T21:52:04.954Z,100.00
2022-08-18T21:54:34.608Z,100.00
2022-08-18T21:57:24.316Z,100.00
2022-08-18T22:00:20.238Z,100.00
2022-08-18T22:02:53.268Z,100.00
2022-08-18T22:05:58.395Z,100.00
2022-08-18T22:08:24.272Z,100.00
2022-08-18T22:12:02.681Z,100.00
2022-08-18T22:14:54.652Z,100.00
2022-08-18T22:17:31.360Z,100.00
2022-08-18T22:20:32.642Z,100.00
2022-08-18T22:23:46.562Z,100.00
2022-08-18T22:26:16.353Z,100.00
2022-08-18T22:29:04.862Z,100.00
2022-08-18T22:31:39.624Z,100.00
2022-08-18T22:34:13.480Z,100.00
2022-08-18T22:37:14.556Z,100.00
2022-08-18T22:39:46.155Z,100.00
2022-08-18T22:42:14.813Z,100.00
2022-08-18T22:44:44.211Z,100.00
2022-08-18T22:47:12.022Z,100.00
2022-08-18T22:49:39.528Z,100.00
2022-08-18T22:52:19.090Z,100.00
2022-08-18T22:54:46.604Z,100.00
2022-08-18T22:57:17.543Z,100.00
2022-08-18T22:59:46.949Z,100.00
2022-08-18T23:02:16.272Z,100.00
2022-08-18T23:04:50.226Z,100.00
2022-08-18T23:07:23.148Z,100.00
2022-08-18T23:09:50.273Z,100.00
2022-08-18T23:12:17.445Z,100.00
2022-08-18T23:14:46.712Z,100.00
2022-08-18T23:17:14.189Z,100.00
2022-08-18T23:19:41.564Z,100.00
2022-08-18T23:22:11.065Z,100.00
2022-08-18T23:24:38.354Z,100.00
2022-08-18T23:27:06.692Z,100.00
2022-08-18T23:29:36.718Z,100.00
2022-08-18T23:32:05.882Z,100.00
2022-08-18T23:34:36.161Z,100.00
2022-08-18T23:37:04.605Z,100.00
2022-08-18T23:39:34.003Z,100.00
2022-08-18T23:42:06.464Z,100.00
2022-08-18T23:44:34.268Z,100.00
2022-08-18T23:47:03.491Z,100.00
2022-08-18T23:49:32.631Z,100.00
2022-08-18T23:52:04.648Z,100.00
2022-08-18T23:54:34.760Z,100.00
2022-08-18T23:57:02.154Z,100.00
2022-08-18T23:59:30.183Z,100.00
